Terminal Aerodrome Forecast
Issued by NWS Sterling, VA

Current Version | Previous Version | Text Only | Print | Product List | Glossary Off
Versions: 1 2 3 4 5 6 7 8 9 10 11 12 13 14 15 16 17 18 19 20 21 22 23 24

776
FTUS41 KLWX 021559 AAA
TAFMRB
TAF AMD
KMRB 021559Z 0216/0312 19006KT P6SM SCT050
     FM030000 35005KT P6SM -SHRA OVC050
     FM030300 34004KT 3SM SHRA BR OVC025
     FM030500 01004KT 2SM SHRA BR OVC008=

USA.gov is the U.S. government's official web portal to all federal, state and local government web resources and services.